sensor_id;sensor_type;location;lat;lon;timestamp;P1;durP1;ratioP1;P2;durP2;ratioP2
19589;SDS011;12231;42.782;23.388;2023-12-22T00:00:10;63.10;;;38.40;;
19589;SDS011;12231;42.782;23.388;2023-12-22T00:02:36;54.20;;;35.47;;
19589;SDS011;12231;42.782;23.388;2023-12-22T00:05:01;55.00;;;36.33;;
19589;SDS011;12231;42.782;23.388;2023-12-22T00:07:27;56.53;;;38.90;;
19589;SDS011;12231;42.782;23.388;2023-12-22T00:09:53;53.10;;;35.07;;
19589;SDS011;12231;42.782;23.388;2023-12-22T00:12:18;44.87;;;30.53;;
19589;SDS011;12231;42.782;23.388;2023-12-22T00:14:44;41.20;;;28.53;;
19589;SDS011;12231;42.782;23.388;2023-12-22T00:17:10;45.30;;;29.80;;
19589;SDS011;12231;42.782;23.388;2023-12-22T00:19:35;46.97;;;30.77;;
19589;SDS011;12231;42.782;23.388;2023-12-22T00:22:00;40.63;;;28.67;;
19589;SDS011;12231;42.782;23.388;2023-12-22T00:24:28;50.73;;;35.37;;
19589;SDS011;12231;42.782;23.388;2023-12-22T00:26:53;58.17;;;35.90;;
19589;SDS011;12231;42.782;23.388;2023-12-22T00:29:18;66.10;;;38.27;;
19589;SDS011;12231;42.782;23.388;2023-12-22T00:31:44;52.50;;;34.03;;
19589;SDS011;12231;42.782;23.388;2023-12-22T00:34:09;51.80;;;31.67;;
19589;SDS011;12231;42.782;23.388;2023-12-22T00:36:35;48.67;;;32.30;;
19589;SDS011;12231;42.782;23.388;2023-12-22T00:39:00;48.97;;;31.63;;
19589;SDS011;12231;42.782;23.388;2023-12-22T00:41:25;55.07;;;35.73;;
19589;SDS011;12231;42.782;23.388;2023-12-22T00:43:51;68.63;;;41.43;;
19589;SDS011;12231;42.782;23.388;2023-12-22T00:46:16;63.17;;;38.97;;
19589;SDS011;12231;42.782;23.388;2023-12-22T00:48:41;54.50;;;35.60;;
19589;SDS011;12231;42.782;23.388;2023-12-22T00:51:07;51.80;;;34.03;;
19589;SDS011;12231;42.782;23.388;2023-12-22T00:53:32;55.30;;;35.60;;
19589;SDS011;12231;42.782;23.388;2023-12-22T00:55:59;52.47;;;32.50;;
19589;SDS011;12231;42.782;23.388;2023-12-22T00:58:25;46.70;;;30.73;;
19589;SDS011;12231;42.782;23.388;2023-12-22T01:00:51;46.53;;;28.33;;
19589;SDS011;12231;42.782;23.388;2023-12-22T01:03:16;48.60;;;30.37;;
19589;SDS011;12231;42.782;23.388;2023-12-22T01:05:41;36.90;;;26.00;;
19589;SDS011;12231;42.782;23.388;2023-12-22T01:08:07;36.27;;;26.20;;
19589;SDS011;12231;42.782;23.388;2023-12-22T01:10:32;38.13;;;25.77;;
19589;SDS011;12231;42.782;23.388;2023-12-22T01:12:58;38.87;;;26.53;;
19589;SDS011;12231;42.782;23.388;2023-12-22T01:15:24;38.97;;;26.27;;
19589;SDS011;12231;42.782;23.388;2023-12-22T01:17:49;37.57;;;25.73;;
19589;SDS011;12231;42.782;23.388;2023-12-22T01:20:15;42.90;;;27.20;;
19589;SDS011;12231;42.782;23.388;2023-12-22T01:22:40;46.47;;;28.73;;
19589;SDS011;12231;42.782;23.388;2023-12-22T01:25:06;38.63;;;25.70;;
19589;SDS011;12231;42.782;23.388;2023-12-22T01:27:31;42.53;;;26.90;;
19589;SDS011;12231;42.782;23.388;2023-12-22T01:29:57;40.93;;;25.60;;
19589;SDS011;12231;42.782;23.388;2023-12-22T01:32:22;38.90;;;25.47;;
19589;SDS011;12231;42.782;23.388;2023-12-22T01:34:47;34.00;;;22.83;;
19589;SDS011;12231;42.782;23.388;2023-12-22T01:37:13;36.77;;;24.97;;
19589;SDS011;12231;42.782;23.388;2023-12-22T01:39:39;33.43;;;22.33;;
19589;SDS011;12231;42.782;23.388;2023-12-22T01:42:04;36.13;;;24.10;;
19589;SDS011;12231;42.782;23.388;2023-12-22T01:44:30;36.57;;;24.80;;
19589;SDS011;12231;42.782;23.388;2023-12-22T01:46:55;37.27;;;25.37;;
19589;SDS011;12231;42.782;23.388;2023-12-22T01:49:21;38.13;;;26.93;;
19589;SDS011;12231;42.782;23.388;2023-12-22T01:51:47;36.57;;;25.17;;
19589;SDS011;12231;42.782;23.388;2023-12-22T01:54:14;38.10;;;25.73;;
19589;SDS011;12231;42.782;23.388;2023-12-22T01:56:43;45.50;;;29.00;;
19589;SDS011;12231;42.782;23.388;2023-12-22T01:59:10;46.67;;;28.53;;
19589;SDS011;12231;42.782;23.388;2023-12-22T02:01:37;40.47;;;26.77;;
19589;SDS011;12231;42.782;23.388;2023-12-22T02:04:03;40.70;;;27.10;;
19589;SDS011;12231;42.782;23.388;2023-12-22T02:06:30;40.90;;;26.77;;
19589;SDS011;12231;42.782;23.388;2023-12-22T02:08:56;48.70;;;31.77;;
19589;SDS011;12231;42.782;23.388;2023-12-22T02:11:22;47.17;;;29.83;;
19589;SDS011;12231;42.782;23.388;2023-12-22T02:13:48;199.47;;;118.00;;
19589;SDS011;12231;42.782;23.388;2023-12-22T02:18:55;59.60;;;37.87;;
19589;SDS011;12231;42.782;23.388;2023-12-22T02:21:22;54.20;;;33.60;;
19589;SDS011;12231;42.782;23.388;2023-12-22T02:23:50;47.73;;;30.60;;
19589;SDS011;12231;42.782;23.388;2023-12-22T02:26:17;51.90;;;30.60;;
19589;SDS011;12231;42.782;23.388;2023-12-22T02:28:52;48.53;;;29.30;;
19589;SDS011;12231;42.782;23.388;2023-12-22T02:34:19;68.00;;;37.10;;
19589;SDS011;12231;42.782;23.388;2023-12-22T02:36:47;63.70;;;37.00;;
19589;SDS011;12231;42.782;23.388;2023-12-22T02:39:14;55.73;;;33.50;;
19589;SDS011;12231;42.782;23.388;2023-12-22T02:41:41;62.60;;;34.90;;
19589;SDS011;12231;42.782;23.388;2023-12-22T02:44:07;55.87;;;33.50;;
19589;SDS011;12231;42.782;23.388;2023-12-22T02:46:33;81.17;;;48.37;;
19589;SDS011;12231;42.782;23.388;2023-12-22T02:48:59;64.77;;;38.77;;
19589;SDS011;12231;42.782;23.388;2023-12-22T02:51:24;51.70;;;31.83;;
19589;SDS011;12231;42.782;23.388;2023-12-22T02:53:50;55.13;;;33.77;;
19589;SDS011;12231;42.782;23.388;2023-12-22T02:56:15;43.43;;;29.03;;
19589;SDS011;12231;42.782;23.388;2023-12-22T02:58:40;41.67;;;27.67;;
19589;SDS011;12231;42.782;23.388;2023-12-22T03:01:06;39.70;;;26.63;;
19589;SDS011;12231;42.782;23.388;2023-12-22T03:03:31;39.27;;;26.77;;
19589;SDS011;12231;42.782;23.388;2023-12-22T03:05:56;39.73;;;26.73;;
19589;SDS011;12231;42.782;23.388;2023-12-22T03:08:22;110.67;;;59.40;;
19589;SDS011;12231;42.782;23.388;2023-12-22T03:10:47;43.00;;;28.97;;
19589;SDS011;12231;42.782;23.388;2023-12-22T03:13:12;76.27;;;52.47;;
19589;SDS011;12231;42.782;23.388;2023-12-22T03:15:38;55.53;;;40.47;;
19589;SDS011;12231;42.782;23.388;2023-12-22T03:18:03;49.33;;;36.50;;
19589;SDS011;12231;42.782;23.388;2023-12-22T03:20:29;52.10;;;34.37;;
19589;SDS011;12231;42.782;23.388;2023-12-22T03:22:54;87.93;;;48.27;;
19589;SDS011;12231;42.782;23.388;2023-12-22T03:25:20;56.47;;;35.73;;
19589;SDS011;12231;42.782;23.388;2023-12-22T03:27:45;47.73;;;30.03;;
19589;SDS011;12231;42.782;23.388;2023-12-22T03:30:10;40.23;;;27.20;;
19589;SDS011;12231;42.782;23.388;2023-12-22T03:32:36;46.97;;;31.10;;
19589;SDS011;12231;42.782;23.388;2023-12-22T03:35:01;46.03;;;31.47;;
19589;SDS011;12231;42.782;23.388;2023-12-22T03:37:27;42.27;;;28.97;;
19589;SDS011;12231;42.782;23.388;2023-12-22T03:39:52;39.70;;;26.23;;
19589;SDS011;12231;42.782;23.388;2023-12-22T03:42:18;37.57;;;26.70;;
19589;SDS011;12231;42.782;23.388;2023-12-22T03:44:43;41.20;;;29.53;;
19589;SDS011;12231;42.782;23.388;2023-12-22T03:47:08;39.23;;;28.83;;
19589;SDS011;12231;42.782;23.388;2023-12-22T03:49:34;47.93;;;33.63;;
19589;SDS011;12231;42.782;23.388;2023-12-22T03:51:59;43.03;;;28.90;;
19589;SDS011;12231;42.782;23.388;2023-12-22T03:54:24;47.03;;;32.37;;
19589;SDS011;12231;42.782;23.388;2023-12-22T03:56:50;42.37;;;30.13;;
19589;SDS011;12231;42.782;23.388;2023-12-22T03:59:15;42.97;;;30.10;;
19589;SDS011;12231;42.782;23.388;2023-12-22T04:01:43;40.60;;;28.00;;
19589;SDS011;12231;42.782;23.388;2023-12-22T04:04:09;42.13;;;29.70;;
19589;SDS011;12231;42.782;23.388;2023-12-22T04:06:37;46.10;;;31.00;;
19589;SDS011;12231;42.782;23.388;2023-12-22T04:09:04;51.83;;;34.97;;
19589;SDS011;12231;42.782;23.388;2023-12-22T04:11:29;59.17;;;36.20;;
19589;SDS011;12231;42.782;23.388;2023-12-22T04:13:54;50.67;;;34.73;;
19589;SDS011;12231;42.782;23.388;2023-12-22T04:16:20;56.77;;;35.80;;
19589;SDS011;12231;42.782;23.388;2023-12-22T04:18:45;53.70;;;36.23;;
19589;SDS011;12231;42.782;23.388;2023-12-22T04:21:10;49.63;;;33.70;;
19589;SDS011;12231;42.782;23.388;2023-12-22T04:23:36;49.60;;;34.67;;
19589;SDS011;12231;42.782;23.388;2023-12-22T04:26:01;47.03;;;33.03;;
19589;SDS011;12231;42.782;23.388;2023-12-22T04:28:27;45.67;;;31.63;;
19589;SDS011;12231;42.782;23.388;2023-12-22T04:30:52;49.83;;;34.67;;
19589;SDS011;12231;42.782;23.388;2023-12-22T04:33:18;54.40;;;37.57;;
19589;SDS011;12231;42.782;23.388;2023-12-22T04:35:43;43.27;;;28.33;;
19589;SDS011;12231;42.782;23.388;2023-12-22T04:38:08;41.53;;;29.03;;
19589;SDS011;12231;42.782;23.388;2023-12-22T04:40:34;39.73;;;28.23;;
19589;SDS011;12231;42.782;23.388;2023-12-22T04:42:59;40.13;;;28.37;;
19589;SDS011;12231;42.782;23.388;2023-12-22T04:45:24;38.60;;;27.07;;
19589;SDS011;12231;42.782;23.388;2023-12-22T04:47:50;41.83;;;28.20;;
19589;SDS011;12231;42.782;23.388;2023-12-22T04:50:15;39.10;;;27.50;;
19589;SDS011;12231;42.782;23.388;2023-12-22T04:52:41;44.07;;;29.73;;
19589;SDS011;12231;42.782;23.388;2023-12-22T04:55:06;42.37;;;28.33;;
19589;SDS011;12231;42.782;23.388;2023-12-22T04:57:31;40.30;;;28.03;;
19589;SDS011;12231;42.782;23.388;2023-12-22T04:59:57;42.87;;;28.83;;
19589;SDS011;12231;42.782;23.388;2023-12-22T05:02:22;41.40;;;29.23;;
19589;SDS011;12231;42.782;23.388;2023-12-22T05:04:47;52.77;;;32.47;;
19589;SDS011;12231;42.782;23.388;2023-12-22T05:07:13;45.33;;;30.53;;
19589;SDS011;12231;42.782;23.388;2023-12-22T05:09:40;47.83;;;32.37;;
19589;SDS011;12231;42.782;23.388;2023-12-22T05:12:06;46.00;;;31.23;;
19589;SDS011;12231;42.782;23.388;2023-12-22T05:14:32;59.13;;;38.43;;
19589;SDS011;12231;42.782;23.388;2023-12-22T05:16:57;42.87;;;30.73;;
19589;SDS011;12231;42.782;23.388;2023-12-22T05:19:22;41.03;;;28.60;;
19589;SDS011;12231;42.782;23.388;2023-12-22T05:21:48;37.87;;;27.80;;
19589;SDS011;12231;42.782;23.388;2023-12-22T05:24:14;39.00;;;27.73;;
19589;SDS011;12231;42.782;23.388;2023-12-22T05:26:40;37.23;;;28.03;;
19589;SDS011;12231;42.782;23.388;2023-12-22T05:29:05;40.33;;;27.30;;
19589;SDS011;12231;42.782;23.388;2023-12-22T05:31:33;37.10;;;25.77;;
19589;SDS011;12231;42.782;23.388;2023-12-22T05:33:59;36.03;;;25.40;;
19589;SDS011;12231;42.782;23.388;2023-12-22T05:36:24;30.50;;;21.93;;
19589;SDS011;12231;42.782;23.388;2023-12-22T05:38:50;36.47;;;27.67;;
19589;SDS011;12231;42.782;23.388;2023-12-22T05:41:16;27.90;;;19.77;;
19589;SDS011;12231;42.782;23.388;2023-12-22T05:43:41;25.87;;;18.03;;
19589;SDS011;12231;42.782;23.388;2023-12-22T05:46:07;29.03;;;19.70;;
19589;SDS011;12231;42.782;23.388;2023-12-22T05:48:33;28.53;;;19.77;;
19589;SDS011;12231;42.782;23.388;2023-12-22T05:50:59;26.53;;;20.13;;
19589;SDS011;12231;42.782;23.388;2023-12-22T05:53:24;32.73;;;22.77;;
19589;SDS011;12231;42.782;23.388;2023-12-22T05:55:50;32.03;;;23.37;;
19589;SDS011;12231;42.782;23.388;2023-12-22T05:58:15;32.57;;;23.43;;
19589;SDS011;12231;42.782;23.388;2023-12-22T06:00:41;32.13;;;21.80;;
19589;SDS011;12231;42.782;23.388;2023-12-22T06:03:06;35.93;;;25.10;;
19589;SDS011;12231;42.782;23.388;2023-12-22T06:05:31;39.33;;;25.57;;
19589;SDS011;12231;42.782;23.388;2023-12-22T06:07:57;62.77;;;33.97;;
19589;SDS011;12231;42.782;23.388;2023-12-22T06:10:22;63.73;;;35.43;;
19589;SDS011;12231;42.782;23.388;2023-12-22T06:12:47;50.70;;;32.43;;
19589;SDS011;12231;42.782;23.388;2023-12-22T06:15:13;45.20;;;31.57;;
19589;SDS011;12231;42.782;23.388;2023-12-22T06:17:38;45.67;;;29.57;;
19589;SDS011;12231;42.782;23.388;2023-12-22T06:20:04;44.43;;;29.57;;
19589;SDS011;12231;42.782;23.388;2023-12-22T06:22:30;75.43;;;41.47;;
19589;SDS011;12231;42.782;23.388;2023-12-22T06:24:55;64.10;;;37.83;;
19589;SDS011;12231;42.782;23.388;2023-12-22T06:27:20;57.20;;;36.03;;
19589;SDS011;12231;42.782;23.388;2023-12-22T06:29:46;50.67;;;33.73;;
19589;SDS011;12231;42.782;23.388;2023-12-22T06:32:11;49.40;;;30.73;;
19589;SDS011;12231;42.782;23.388;2023-12-22T06:34:37;39.77;;;27.40;;
19589;SDS011;12231;42.782;23.388;2023-12-22T06:37:02;41.80;;;27.17;;
19589;SDS011;12231;42.782;23.388;2023-12-22T06:39:28;54.03;;;28.30;;
19589;SDS011;12231;42.782;23.388;2023-12-22T06:41:53;102.70;;;41.67;;
19589;SDS011;12231;42.782;23.388;2023-12-22T06:44:19;39.87;;;26.90;;
19589;SDS011;12231;42.782;23.388;2023-12-22T06:46:44;36.10;;;25.57;;
19589;SDS011;12231;42.782;23.388;2023-12-22T06:49:10;44.97;;;31.90;;
19589;SDS011;12231;42.782;23.388;2023-12-22T06:51:35;33.07;;;23.47;;
19589;SDS011;12231;42.782;23.388;2023-12-22T06:54:00;34.60;;;25.10;;
19589;SDS011;12231;42.782;23.388;2023-12-22T06:56:27;36.53;;;25.67;;
19589;SDS011;12231;42.782;23.388;2023-12-22T06:58:55;35.47;;;24.43;;
19589;SDS011;12231;42.782;23.388;2023-12-22T07:01:32;41.47;;;27.80;;
19589;SDS011;12231;42.782;23.388;2023-12-22T07:03:59;45.23;;;30.87;;
19589;SDS011;12231;42.782;23.388;2023-12-22T07:06:25;47.97;;;32.10;;
19589;SDS011;12231;42.782;23.388;2023-12-22T07:11:24;46.87;;;31.17;;
19589;SDS011;12231;42.782;23.388;2023-12-22T07:13:49;46.80;;;30.27;;
19589;SDS011;12231;42.782;23.388;2023-12-22T07:16:15;75.60;;;47.43;;
19589;SDS011;12231;42.782;23.388;2023-12-22T07:18:40;59.63;;;40.20;;
19589;SDS011;12231;42.782;23.388;2023-12-22T07:21:06;62.50;;;39.40;;
19589;SDS011;12231;42.782;23.388;2023-12-22T07:23:32;60.23;;;37.30;;
19589;SDS011;12231;42.782;23.388;2023-12-22T07:25:57;59.60;;;37.17;;
19589;SDS011;12231;42.782;23.388;2023-12-22T07:28:23;55.33;;;35.67;;
19589;SDS011;12231;42.782;23.388;2023-12-22T07:30:48;56.23;;;37.80;;
19589;SDS011;12231;42.782;23.388;2023-12-22T07:33:14;56.67;;;39.27;;
19589;SDS011;12231;42.782;23.388;2023-12-22T07:35:39;66.80;;;44.37;;
19589;SDS011;12231;42.782;23.388;2023-12-22T07:38:05;67.50;;;44.37;;
19589;SDS011;12231;42.782;23.388;2023-12-22T07:40:30;68.30;;;43.17;;
19589;SDS011;12231;42.782;23.388;2023-12-22T07:42:56;65.77;;;43.40;;
19589;SDS011;12231;42.782;23.388;2023-12-22T07:45:22;68.13;;;43.90;;
19589;SDS011;12231;42.782;23.388;2023-12-22T07:47:47;64.03;;;44.10;;
19589;SDS011;12231;42.782;23.388;2023-12-22T07:50:13;66.63;;;44.10;;
19589;SDS011;12231;42.782;23.388;2023-12-22T07:52:38;66.60;;;44.90;;
19589;SDS011;12231;42.782;23.388;2023-12-22T07:55:07;65.33;;;41.57;;
19589;SDS011;12231;42.782;23.388;2023-12-22T07:57:37;53.63;;;37.60;;
19589;SDS011;12231;42.782;23.388;2023-12-22T08:00:03;49.83;;;33.47;;
19589;SDS011;12231;42.782;23.388;2023-12-22T08:02:29;40.73;;;27.30;;
19589;SDS011;12231;42.782;23.388;2023-12-22T08:04:55;41.07;;;28.27;;
19589;SDS011;12231;42.782;23.388;2023-12-22T08:07:20;40.67;;;29.73;;
19589;SDS011;12231;42.782;23.388;2023-12-22T08:09:46;35.33;;;25.50;;
19589;SDS011;12231;42.782;23.388;2023-12-22T08:12:11;41.23;;;28.03;;
19589;SDS011;12231;42.782;23.388;2023-12-22T08:14:36;41.27;;;26.47;;
19589;SDS011;12231;42.782;23.388;2023-12-22T08:17:02;42.23;;;28.20;;
19589;SDS011;12231;42.782;23.388;2023-12-22T08:19:27;50.17;;;31.20;;
19589;SDS011;12231;42.782;23.388;2023-12-22T08:21:53;43.73;;;28.43;;
19589;SDS011;12231;42.782;23.388;2023-12-22T08:24:19;48.33;;;32.73;;
19589;SDS011;12231;42.782;23.388;2023-12-22T08:26:45;46.23;;;31.57;;
19589;SDS011;12231;42.782;23.388;2023-12-22T08:29:10;68.27;;;39.53;;
19589;SDS011;12231;42.782;23.388;2023-12-22T08:31:35;72.17;;;43.43;;
19589;SDS011;12231;42.782;23.388;2023-12-22T08:34:01;91.57;;;55.60;;
19589;SDS011;12231;42.782;23.388;2023-12-22T08:36:26;92.90;;;58.73;;
19589;SDS011;12231;42.782;23.388;2023-12-22T08:38:52;78.07;;;47.53;;
19589;SDS011;12231;42.782;23.388;2023-12-22T08:41:17;122.43;;;55.83;;
19589;SDS011;12231;42.782;23.388;2023-12-22T08:43:43;75.73;;;39.33;;
19589;SDS011;12231;42.782;23.388;2023-12-22T08:46:08;142.33;;;58.70;;
19589;SDS011;12231;42.782;23.388;2023-12-22T08:48:35;59.70;;;34.23;;
19589;SDS011;12231;42.782;23.388;2023-12-22T08:51:00;99.87;;;49.77;;
19589;SDS011;12231;42.782;23.388;2023-12-22T08:53:25;85.80;;;43.67;;
19589;SDS011;12231;42.782;23.388;2023-12-22T08:55:51;150.63;;;65.93;;
19589;SDS011;12231;42.782;23.388;2023-12-22T08:58:17;156.17;;;75.97;;
19589;SDS011;12231;42.782;23.388;2023-12-22T09:00:42;145.93;;;66.57;;
19589;SDS011;12231;42.782;23.388;2023-12-22T09:03:08;203.37;;;91.67;;
19589;SDS011;12231;42.782;23.388;2023-12-22T09:05:33;160.77;;;75.97;;
19589;SDS011;12231;42.782;23.388;2023-12-22T09:07:58;118.03;;;62.90;;
19589;SDS011;12231;42.782;23.388;2023-12-22T09:10:24;116.17;;;61.90;;
19589;SDS011;12231;42.782;23.388;2023-12-22T09:12:50;108.03;;;58.13;;
19589;SDS011;12231;42.782;23.388;2023-12-22T09:15:16;70.30;;;38.97;;
19589;SDS011;12231;42.782;23.388;2023-12-22T09:17:41;30.43;;;18.70;;
19589;SDS011;12231;42.782;23.388;2023-12-22T09:20:07;20.57;;;16.57;;
19589;SDS011;12231;42.782;23.388;2023-12-22T09:22:33;25.57;;;18.07;;
19589;SDS011;12231;42.782;23.388;2023-12-22T09:24:58;24.20;;;14.00;;
19589;SDS011;12231;42.782;23.388;2023-12-22T09:27:24;16.53;;;12.53;;
19589;SDS011;12231;42.782;23.388;2023-12-22T09:29:53;13.90;;;10.53;;
19589;SDS011;12231;42.782;23.388;2023-12-22T09:32:19;12.53;;;10.27;;
19589;SDS011;12231;42.782;23.388;2023-12-22T09:34:44;14.90;;;11.03;;
19589;SDS011;12231;42.782;23.388;2023-12-22T09:37:10;24.00;;;20.00;;
19589;SDS011;12231;42.782;23.388;2023-12-22T09:39:35;13.73;;;9.93;;
19589;SDS011;12231;42.782;23.388;2023-12-22T09:42:00;11.77;;;8.50;;
19589;SDS011;12231;42.782;23.388;2023-12-22T09:44:26;15.97;;;9.93;;
19589;SDS011;12231;42.782;23.388;2023-12-22T09:46:56;11.80;;;7.90;;
19589;SDS011;12231;42.782;23.388;2023-12-22T09:49:23;12.30;;;7.60;;
19589;SDS011;12231;42.782;23.388;2023-12-22T09:51:49;13.27;;;9.50;;
19589;SDS011;12231;42.782;23.388;2023-12-22T09:54:15;24.00;;;15.00;;
19589;SDS011;12231;42.782;23.388;2023-12-22T09:56:42;45.37;;;32.80;;
19589;SDS011;12231;42.782;23.388;2023-12-22T09:59:10;35.47;;;18.93;;
19589;SDS011;12231;42.782;23.388;2023-12-22T10:01:42;26.90;;;15.27;;
19589;SDS011;12231;42.782;23.388;2023-12-22T10:04:10;15.70;;;10.23;;
19589;SDS011;12231;42.782;23.388;2023-12-22T10:06:36;14.93;;;9.63;;
19589;SDS011;12231;42.782;23.388;2023-12-22T10:09:02;19.10;;;11.73;;
19589;SDS011;12231;42.782;23.388;2023-12-22T10:11:31;13.10;;;9.73;;
19589;SDS011;12231;42.782;23.388;2023-12-22T10:13:57;12.60;;;8.73;;
19589;SDS011;12231;42.782;23.388;2023-12-22T10:16:24;13.80;;;9.87;;
19589;SDS011;12231;42.782;23.388;2023-12-22T10:18:49;16.63;;;10.60;;
19589;SDS011;12231;42.782;23.388;2023-12-22T10:21:16;19.77;;;12.53;;
19589;SDS011;12231;42.782;23.388;2023-12-22T10:23:41;18.80;;;11.50;;
19589;SDS011;12231;42.782;23.388;2023-12-22T10:26:06;15.70;;;9.97;;
19589;SDS011;12231;42.782;23.388;2023-12-22T10:28:33;14.40;;;10.27;;
19589;SDS011;12231;42.782;23.388;2023-12-22T10:30:58;21.97;;;12.00;;
19589;SDS011;12231;42.782;23.388;2023-12-22T10:33:31;18.17;;;11.20;;
19589;SDS011;12231;42.782;23.388;2023-12-22T10:35:58;20.77;;;11.87;;
19589;SDS011;12231;42.782;23.388;2023-12-22T10:38:25;15.93;;;10.53;;
19589;SDS011;12231;42.782;23.388;2023-12-22T10:40:51;19.23;;;11.77;;
19589;SDS011;12231;42.782;23.388;2023-12-22T10:43:16;21.17;;;13.57;;
19589;SDS011;12231;42.782;23.388;2023-12-22T10:45:42;36.87;;;32.87;;
19589;SDS011;12231;42.782;23.388;2023-12-22T10:48:07;15.43;;;12.53;;
19589;SDS011;12231;42.782;23.388;2023-12-22T10:50:33;13.37;;;11.97;;
19589;SDS011;12231;42.782;23.388;2023-12-22T10:52:58;14.83;;;11.80;;
19589;SDS011;12231;42.782;23.388;2023-12-22T10:55:24;32.03;;;22.23;;
19589;SDS011;12231;42.782;23.388;2023-12-22T10:57:49;90.83;;;62.43;;
19589;SDS011;12231;42.782;23.388;2023-12-22T11:00:15;67.17;;;48.03;;
19589;SDS011;12231;42.782;23.388;2023-12-22T11:02:42;14.70;;;13.10;;
19589;SDS011;12231;42.782;23.388;2023-12-22T11:05:10;6.73;;;5.23;;
19589;SDS011;12231;42.782;23.388;2023-12-22T11:07:37;8.73;;;5.10;;
19589;SDS011;12231;42.782;23.388;2023-12-22T11:12:31;6.70;;;5.63;;
19589;SDS011;12231;42.782;23.388;2023-12-22T11:15:00;8.73;;;6.17;;
19589;SDS011;12231;42.782;23.388;2023-12-22T11:17:26;6.27;;;4.33;;
19589;SDS011;12231;42.782;23.388;2023-12-22T11:19:53;3.97;;;3.37;;
19589;SDS011;12231;42.782;23.388;2023-12-22T11:22:19;23.93;;;16.07;;
19589;SDS011;12231;42.782;23.388;2023-12-22T11:24:46;4.83;;;3.80;;
19589;SDS011;12231;42.782;23.388;2023-12-22T11:27:15;4.60;;;3.20;;
19589;SDS011;12231;42.782;23.388;2023-12-22T11:29:43;2.77;;;2.53;;
19589;SDS011;12231;42.782;23.388;2023-12-22T11:32:16;3.17;;;2.87;;
19589;SDS011;12231;42.782;23.388;2023-12-22T11:34:43;3.50;;;3.20;;
19589;SDS011;12231;42.782;23.388;2023-12-22T11:37:11;5.97;;;3.00;;
19589;SDS011;12231;42.782;23.388;2023-12-22T11:39:37;3.00;;;2.70;;
19589;SDS011;12231;42.782;23.388;2023-12-22T11:42:04;17.53;;;8.17;;
19589;SDS011;12231;42.782;23.388;2023-12-22T11:44:32;7.33;;;4.77;;
19589;SDS011;12231;42.782;23.388;2023-12-22T11:47:07;4.90;;;3.90;;
19589;SDS011;12231;42.782;23.388;2023-12-22T11:49:37;9.90;;;8.90;;
19589;SDS011;12231;42.782;23.388;2023-12-22T11:52:09;3.87;;;3.57;;
19589;SDS011;12231;42.782;23.388;2023-12-22T11:54:50;4.67;;;3.60;;
19589;SDS011;12231;42.782;23.388;2023-12-22T11:57:30;6.80;;;3.90;;
19589;SDS011;12231;42.782;23.388;2023-12-22T12:00:06;5.00;;;3.77;;
19589;SDS011;12231;42.782;23.388;2023-12-22T12:02:56;6.37;;;4.43;;
19589;SDS011;12231;42.782;23.388;2023-12-22T12:05:22;5.00;;;4.07;;
19589;SDS011;12231;42.782;23.388;2023-12-22T12:07:48;5.37;;;3.97;;
19589;SDS011;12231;42.782;23.388;2023-12-22T12:13:07;10.33;;;7.20;;
19589;SDS011;12231;42.782;23.388;2023-12-22T12:15:34;30.03;;;21.37;;
19589;SDS011;12231;42.782;23.388;2023-12-22T12:18:00;43.10;;;33.20;;
19589;SDS011;12231;42.782;23.388;2023-12-22T12:20:26;32.10;;;28.20;;
19589;SDS011;12231;42.782;23.388;2023-12-22T12:22:52;13.33;;;11.60;;
19589;SDS011;12231;42.782;23.388;2023-12-22T12:25:18;15.97;;;11.70;;
19589;SDS011;12231;42.782;23.388;2023-12-22T12:27:49;18.80;;;15.17;;
19589;SDS011;12231;42.782;23.388;2023-12-22T12:30:15;20.73;;;12.17;;
19589;SDS011;12231;42.782;23.388;2023-12-22T12:32:42;31.77;;;14.07;;
19589;SDS011;12231;42.782;23.388;2023-12-22T12:35:11;39.07;;;17.43;;
19589;SDS011;12231;42.782;23.388;2023-12-22T12:37:37;24.33;;;12.13;;
19589;SDS011;12231;42.782;23.388;2023-12-22T12:40:03;26.80;;;14.20;;
19589;SDS011;12231;42.782;23.388;2023-12-22T12:42:33;37.20;;;18.00;;
19589;SDS011;12231;42.782;23.388;2023-12-22T12:45:06;23.77;;;14.03;;
19589;SDS011;12231;42.782;23.388;2023-12-22T12:47:33;30.67;;;14.10;;
19589;SDS011;12231;42.782;23.388;2023-12-22T12:49:59;26.57;;;14.50;;
19589;SDS011;12231;42.782;23.388;2023-12-22T12:52:25;20.37;;;13.53;;
19589;SDS011;12231;42.782;23.388;2023-12-22T12:54:51;14.43;;;10.03;;
19589;SDS011;12231;42.782;23.388;2023-12-22T12:57:17;8.47;;;6.43;;
19589;SDS011;12231;42.782;23.388;2023-12-22T12:59:46;8.23;;;5.73;;
19589;SDS011;12231;42.782;23.388;2023-12-22T13:02:13;8.47;;;6.73;;
19589;SDS011;12231;42.782;23.388;2023-12-22T13:04:39;6.80;;;6.10;;
19589;SDS011;12231;42.782;23.388;2023-12-22T13:07:05;7.53;;;6.47;;
19589;SDS011;12231;42.782;23.388;2023-12-22T13:09:33;14.77;;;12.53;;
19589;SDS011;12231;42.782;23.388;2023-12-22T13:11:59;23.13;;;15.93;;
19589;SDS011;12231;42.782;23.388;2023-12-22T13:14:25;31.63;;;20.33;;
19589;SDS011;12231;42.782;23.388;2023-12-22T13:16:52;16.30;;;12.43;;
19589;SDS011;12231;42.782;23.388;2023-12-22T13:19:25;8.30;;;7.27;;
19589;SDS011;12231;42.782;23.388;2023-12-22T13:21:52;15.20;;;10.03;;
19589;SDS011;12231;42.782;23.388;2023-12-22T13:24:19;11.17;;;6.70;;
19589;SDS011;12231;42.782;23.388;2023-12-22T13:26:44;8.20;;;6.63;;
19589;SDS011;12231;42.782;23.388;2023-12-22T13:29:11;11.03;;;7.80;;
19589;SDS011;12231;42.782;23.388;2023-12-22T13:31:37;11.43;;;9.47;;
19589;SDS011;12231;42.782;23.388;2023-12-22T13:34:10;13.97;;;11.17;;
19589;SDS011;12231;42.782;23.388;2023-12-22T13:36:37;15.53;;;10.47;;
19589;SDS011;12231;42.782;23.388;2023-12-22T13:39:05;12.33;;;8.73;;
19589;SDS011;12231;42.782;23.388;2023-12-22T13:41:33;9.93;;;7.80;;
19589;SDS011;12231;42.782;23.388;2023-12-22T13:44:05;8.27;;;7.23;;
19589;SDS011;12231;42.782;23.388;2023-12-22T13:46:31;11.27;;;8.10;;
19589;SDS011;12231;42.782;23.388;2023-12-22T13:49:00;11.63;;;9.97;;
19589;SDS011;12231;42.782;23.388;2023-12-22T13:51:26;9.50;;;7.83;;
19589;SDS011;12231;42.782;23.388;2023-12-22T13:53:52;10.83;;;8.27;;
19589;SDS011;12231;42.782;23.388;2023-12-22T13:56:17;11.03;;;8.33;;
19589;SDS011;12231;42.782;23.388;2023-12-22T13:58:43;9.07;;;7.40;;
19589;SDS011;12231;42.782;23.388;2023-12-22T14:01:12;14.30;;;10.17;;
19589;SDS011;12231;42.782;23.388;2023-12-22T14:03:44;11.70;;;10.17;;
19589;SDS011;12231;42.782;23.388;2023-12-22T14:06:10;8.47;;;7.50;;
19589;SDS011;12231;42.782;23.388;2023-12-22T14:08:38;10.83;;;8.50;;
19589;SDS011;12231;42.782;23.388;2023-12-22T14:11:05;13.40;;;10.53;;
19589;SDS011;12231;42.782;23.388;2023-12-22T14:13:30;10.53;;;8.63;;
19589;SDS011;12231;42.782;23.388;2023-12-22T14:15:56;10.97;;;9.73;;
19589;SDS011;12231;42.782;23.388;2023-12-22T14:18:22;98.97;;;67.73;;